sensor_id;sensor_type;location;lat;lon;timestamp;P1;durP1;ratioP1;P2;durP2;ratioP2
34876;SDS011;21086;44.780;17.194;2023-06-26T00:00:33;4.55;;;2.78;;
34876;SDS011;21086;44.780;17.194;2023-06-26T00:03:00;6.03;;;3.15;;
34876;SDS011;21086;44.780;17.194;2023-06-26T00:05:28;3.25;;;2.92;;
34876;SDS011;21086;44.780;17.194;2023-06-26T00:07:56;5.15;;;3.30;;
34876;SDS011;21086;44.780;17.194;2023-06-26T00:10:26;4.95;;;3.20;;
34876;SDS011;21086;44.780;17.194;2023-06-26T00:12:56;3.38;;;3.08;;
34876;SDS011;21086;44.780;17.194;2023-06-26T00:15:23;4.25;;;3.10;;
34876;SDS011;21086;44.780;17.194;2023-06-26T00:17:50;3.65;;;3.22;;
34876;SDS011;21086;44.780;17.194;2023-06-26T00:20:18;5.70;;;3.05;;
34876;SDS011;21086;44.780;17.194;2023-06-26T00:22:45;4.18;;;3.30;;
34876;SDS011;21086;44.780;17.194;2023-06-26T00:25:12;6.05;;;3.33;;
34876;SDS011;21086;44.780;17.194;2023-06-26T00:27:39;4.32;;;3.28;;
34876;SDS011;21086;44.780;17.194;2023-06-26T00:30:06;3.67;;;3.10;;
34876;SDS011;21086;44.780;17.194;2023-06-26T00:32:34;5.90;;;3.10;;
34876;SDS011;21086;44.780;17.194;2023-06-26T00:35:02;4.20;;;3.25;;
34876;SDS011;21086;44.780;17.194;2023-06-26T00:37:29;4.65;;;3.40;;
34876;SDS011;21086;44.780;17.194;2023-06-26T00:39:57;4.28;;;3.40;;
34876;SDS011;21086;44.780;17.194;2023-06-26T00:42:24;5.82;;;3.33;;
34876;SDS011;21086;44.780;17.194;2023-06-26T00:44:51;3.80;;;3.35;;
34876;SDS011;21086;44.780;17.194;2023-06-26T00:47:18;4.32;;;2.92;;
34876;SDS011;21086;44.780;17.194;2023-06-26T00:49:45;3.42;;;2.97;;
34876;SDS011;21086;44.780;17.194;2023-06-26T00:52:12;4.13;;;3.00;;
34876;SDS011;21086;44.780;17.194;2023-06-26T00:54:39;4.53;;;3.47;;
34876;SDS011;21086;44.780;17.194;2023-06-26T00:57:06;4.28;;;3.05;;
34876;SDS011;21086;44.780;17.194;2023-06-26T00:59:34;4.15;;;3.17;;
34876;SDS011;21086;44.780;17.194;2023-06-26T01:02:01;2.95;;;2.65;;
34876;SDS011;21086;44.780;17.194;2023-06-26T01:04:28;3.40;;;3.10;;
34876;SDS011;21086;44.780;17.194;2023-06-26T01:06:59;4.85;;;3.45;;
34876;SDS011;21086;44.780;17.194;2023-06-26T01:09:28;5.18;;;3.40;;
34876;SDS011;21086;44.780;17.194;2023-06-26T01:11:56;3.70;;;3.38;;
34876;SDS011;21086;44.780;17.194;2023-06-26T01:14:23;5.32;;;3.60;;
34876;SDS011;21086;44.780;17.194;2023-06-26T01:16:50;5.55;;;3.30;;
34876;SDS011;21086;44.780;17.194;2023-06-26T01:19:19;4.18;;;3.47;;
34876;SDS011;21086;44.780;17.194;2023-06-26T01:24:54;4.55;;;3.67;;
34876;SDS011;21086;44.780;17.194;2023-06-26T01:27:35;5.45;;;3.17;;
34876;SDS011;21086;44.780;17.194;2023-06-26T01:30:03;3.35;;;2.80;;
34876;SDS011;21086;44.780;17.194;2023-06-26T01:32:32;6.00;;;3.63;;
34876;SDS011;21086;44.780;17.194;2023-06-26T01:35:00;4.65;;;3.20;;
34876;SDS011;21086;44.780;17.194;2023-06-26T01:37:29;3.58;;;3.28;;
34876;SDS011;21086;44.780;17.194;2023-06-26T01:39:57;4.97;;;3.38;;
34876;SDS011;21086;44.780;17.194;2023-06-26T01:42:24;4.63;;;3.20;;
34876;SDS011;21086;44.780;17.194;2023-06-26T01:44:51;7.20;;;3.38;;
34876;SDS011;21086;44.780;17.194;2023-06-26T01:47:21;5.25;;;3.30;;
34876;SDS011;21086;44.780;17.194;2023-06-26T01:49:59;4.10;;;3.53;;
34876;SDS011;21086;44.780;17.194;2023-06-26T01:55:23;4.88;;;3.50;;
34876;SDS011;21086;44.780;17.194;2023-06-26T01:58:05;4.20;;;3.72;;
34876;SDS011;21086;44.780;17.194;2023-06-26T02:00:33;4.07;;;3.47;;
34876;SDS011;21086;44.780;17.194;2023-06-26T02:03:01;8.70;;;3.35;;
34876;SDS011;21086;44.780;17.194;2023-06-26T02:05:29;5.07;;;3.20;;
34876;SDS011;21086;44.780;17.194;2023-06-26T02:07:57;3.60;;;3.03;;
34876;SDS011;21086;44.780;17.194;2023-06-26T02:10:24;5.50;;;3.53;;
34876;SDS011;21086;44.780;17.194;2023-06-26T02:12:51;5.15;;;3.33;;
34876;SDS011;21086;44.780;17.194;2023-06-26T02:15:18;4.97;;;3.28;;
34876;SDS011;21086;44.780;17.194;2023-06-26T02:17:46;4.43;;;3.10;;
34876;SDS011;21086;44.780;17.194;2023-06-26T02:20:14;4.57;;;3.10;;
34876;SDS011;21086;44.780;17.194;2023-06-26T02:22:42;4.35;;;3.15;;
34876;SDS011;21086;44.780;17.194;2023-06-26T02:25:09;3.50;;;3.20;;
34876;SDS011;21086;44.780;17.194;2023-06-26T02:27:36;5.15;;;3.40;;
34876;SDS011;21086;44.780;17.194;2023-06-26T02:30:04;4.60;;;3.33;;
34876;SDS011;21086;44.780;17.194;2023-06-26T02:32:31;3.97;;;3.58;;
34876;SDS011;21086;44.780;17.194;2023-06-26T02:34:59;4.63;;;3.50;;
34876;SDS011;21086;44.780;17.194;2023-06-26T02:37:26;3.90;;;3.50;;
34876;SDS011;21086;44.780;17.194;2023-06-26T02:39:53;7.35;;;3.92;;
34876;SDS011;21086;44.780;17.194;2023-06-26T02:42:20;5.25;;;3.53;;
34876;SDS011;21086;44.780;17.194;2023-06-26T02:44:48;4.38;;;3.20;;
34876;SDS011;21086;44.780;17.194;2023-06-26T02:47:15;5.88;;;3.03;;
34876;SDS011;21086;44.780;17.194;2023-06-26T02:49:42;5.18;;;3.75;;
34876;SDS011;21086;44.780;17.194;2023-06-26T02:52:09;5.25;;;3.38;;
34876;SDS011;21086;44.780;17.194;2023-06-26T02:54:36;3.50;;;3.15;;
34876;SDS011;21086;44.780;17.194;2023-06-26T02:57:03;3.75;;;3.35;;
34876;SDS011;21086;44.780;17.194;2023-06-26T02:59:30;3.60;;;3.13;;
34876;SDS011;21086;44.780;17.194;2023-06-26T03:01:57;3.42;;;3.00;;
34876;SDS011;21086;44.780;17.194;2023-06-26T03:04:25;3.97;;;3.47;;
34876;SDS011;21086;44.780;17.194;2023-06-26T03:06:53;4.15;;;3.55;;
34876;SDS011;21086;44.780;17.194;2023-06-26T03:09:20;5.10;;;3.25;;
34876;SDS011;21086;44.780;17.194;2023-06-26T03:11:48;5.40;;;3.58;;
34876;SDS011;21086;44.780;17.194;2023-06-26T03:14:15;3.95;;;3.17;;
34876;SDS011;21086;44.780;17.194;2023-06-26T03:16:43;3.75;;;3.15;;
34876;SDS011;21086;44.780;17.194;2023-06-26T03:19:10;5.00;;;2.78;;
34876;SDS011;21086;44.780;17.194;2023-06-26T03:21:37;4.35;;;2.85;;
34876;SDS011;21086;44.780;17.194;2023-06-26T03:24:04;10.15;;;3.58;;
34876;SDS011;21086;44.780;17.194;2023-06-26T03:26:31;4.20;;;3.58;;
34876;SDS011;21086;44.780;17.194;2023-06-26T03:28:58;4.13;;;3.65;;
34876;SDS011;21086;44.780;17.194;2023-06-26T03:31:25;4.80;;;3.30;;
34876;SDS011;21086;44.780;17.194;2023-06-26T03:33:52;5.88;;;3.28;;
34876;SDS011;21086;44.780;17.194;2023-06-26T03:36:20;4.85;;;3.10;;
34876;SDS011;21086;44.780;17.194;2023-06-26T03:38:46;4.18;;;3.30;;
34876;SDS011;21086;44.780;17.194;2023-06-26T03:41:14;7.00;;;3.53;;
34876;SDS011;21086;44.780;17.194;2023-06-26T03:43:41;5.22;;;2.92;;
34876;SDS011;21086;44.780;17.194;2023-06-26T03:46:08;5.57;;;3.85;;
34876;SDS011;21086;44.780;17.194;2023-06-26T03:48:35;4.28;;;3.58;;
34876;SDS011;21086;44.780;17.194;2023-06-26T03:51:04;6.55;;;3.60;;
34876;SDS011;21086;44.780;17.194;2023-06-26T03:53:33;4.60;;;2.97;;
34876;SDS011;21086;44.780;17.194;2023-06-26T03:56:00;3.88;;;3.33;;
34876;SDS011;21086;44.780;17.194;2023-06-26T03:58:28;6.18;;;3.42;;
34876;SDS011;21086;44.780;17.194;2023-06-26T04:00:54;6.15;;;3.35;;
34876;SDS011;21086;44.780;17.194;2023-06-26T04:03:22;5.80;;;3.40;;
34876;SDS011;21086;44.780;17.194;2023-06-26T04:05:49;3.75;;;2.75;;
34876;SDS011;21086;44.780;17.194;2023-06-26T04:08:17;5.20;;;3.00;;
34876;SDS011;21086;44.780;17.194;2023-06-26T04:10:45;7.03;;;2.97;;
34876;SDS011;21086;44.780;17.194;2023-06-26T04:13:14;6.75;;;3.80;;
34876;SDS011;21086;44.780;17.194;2023-06-26T04:15:41;5.22;;;3.42;;
34876;SDS011;21086;44.780;17.194;2023-06-26T04:18:08;4.80;;;3.25;;
34876;SDS011;21086;44.780;17.194;2023-06-26T04:20:39;9.02;;;3.63;;
34876;SDS011;21086;44.780;17.194;2023-06-26T04:23:26;3.58;;;3.17;;
34876;SDS011;21086;44.780;17.194;2023-06-26T04:25:54;4.35;;;3.22;;
34876;SDS011;21086;44.780;17.194;2023-06-26T04:28:21;4.53;;;3.30;;
34876;SDS011;21086;44.780;17.194;2023-06-26T04:30:47;6.20;;;3.33;;
34876;SDS011;21086;44.780;17.194;2023-06-26T04:38:45;4.22;;;3.38;;
34876;SDS011;21086;44.780;17.194;2023-06-26T04:41:12;8.23;;;3.03;;
34876;SDS011;21086;44.780;17.194;2023-06-26T04:43:40;3.95;;;3.35;;
34876;SDS011;21086;44.780;17.194;2023-06-26T04:46:07;5.13;;;3.10;;
34876;SDS011;21086;44.780;17.194;2023-06-26T04:48:34;5.97;;;3.17;;
34876;SDS011;21086;44.780;17.194;2023-06-26T04:51:01;5.25;;;3.00;;
34876;SDS011;21086;44.780;17.194;2023-06-26T04:53:27;5.15;;;3.28;;
34876;SDS011;21086;44.780;17.194;2023-06-26T04:55:54;7.13;;;3.20;;
34876;SDS011;21086;44.780;17.194;2023-06-26T04:58:22;3.22;;;2.90;;
34876;SDS011;21086;44.780;17.194;2023-06-26T05:00:49;4.68;;;3.20;;
34876;SDS011;21086;44.780;17.194;2023-06-26T05:03:16;5.15;;;2.88;;
34876;SDS011;21086;44.780;17.194;2023-06-26T05:05:45;4.35;;;3.15;;
34876;SDS011;21086;44.780;17.194;2023-06-26T05:08:15;4.78;;;3.05;;
34876;SDS011;21086;44.780;17.194;2023-06-26T05:10:43;4.50;;;2.72;;
34876;SDS011;21086;44.780;17.194;2023-06-26T05:13:11;3.83;;;3.15;;
34876;SDS011;21086;44.780;17.194;2023-06-26T05:15:41;4.68;;;3.08;;
34876;SDS011;21086;44.780;17.194;2023-06-26T05:18:08;3.80;;;3.42;;
34876;SDS011;21086;44.780;17.194;2023-06-26T05:20:35;4.32;;;2.90;;
34876;SDS011;21086;44.780;17.194;2023-06-26T05:23:03;6.43;;;3.10;;
34876;SDS011;21086;44.780;17.194;2023-06-26T05:25:32;7.15;;;3.40;;
34876;SDS011;21086;44.780;17.194;2023-06-26T05:28:00;4.55;;;3.10;;
34876;SDS011;21086;44.780;17.194;2023-06-26T05:30:28;4.88;;;3.10;;
34876;SDS011;21086;44.780;17.194;2023-06-26T05:32:57;5.25;;;2.90;;
34876;SDS011;21086;44.780;17.194;2023-06-26T05:35:28;5.03;;;3.35;;
34876;SDS011;21086;44.780;17.194;2023-06-26T05:37:58;3.28;;;2.97;;
34876;SDS011;21086;44.780;17.194;2023-06-26T05:40:26;3.63;;;2.78;;
34876;SDS011;21086;44.780;17.194;2023-06-26T05:42:53;3.95;;;2.83;;
34876;SDS011;21086;44.780;17.194;2023-06-26T05:45:20;3.63;;;2.75;;
34876;SDS011;21086;44.780;17.194;2023-06-26T05:47:47;4.97;;;3.10;;
34876;SDS011;21086;44.780;17.194;2023-06-26T05:50:17;3.22;;;2.88;;
34876;SDS011;21086;44.780;17.194;2023-06-26T05:52:46;3.17;;;2.88;;
34876;SDS011;21086;44.780;17.194;2023-06-26T05:55:13;7.30;;;3.72;;
34876;SDS011;21086;44.780;17.194;2023-06-26T05:57:40;5.25;;;2.75;;
34876;SDS011;21086;44.780;17.194;2023-06-26T06:00:08;5.60;;;3.42;;
34876;SDS011;21086;44.780;17.194;2023-06-26T06:02:37;3.75;;;3.05;;
34876;SDS011;21086;44.780;17.194;2023-06-26T06:05:05;5.22;;;3.25;;
34876;SDS011;21086;44.780;17.194;2023-06-26T06:07:32;3.70;;;3.03;;
34876;SDS011;21086;44.780;17.194;2023-06-26T06:10:01;6.28;;;3.22;;
34876;SDS011;21086;44.780;17.194;2023-06-26T06:12:29;3.38;;;2.95;;
34876;SDS011;21086;44.780;17.194;2023-06-26T06:14:56;6.88;;;3.05;;
34876;SDS011;21086;44.780;17.194;2023-06-26T06:17:23;5.38;;;3.13;;
34876;SDS011;21086;44.780;17.194;2023-06-26T06:19:50;4.15;;;2.97;;
34876;SDS011;21086;44.780;17.194;2023-06-26T06:22:17;4.57;;;2.72;;
34876;SDS011;21086;44.780;17.194;2023-06-26T06:24:45;4.43;;;2.80;;
34876;SDS011;21086;44.780;17.194;2023-06-26T06:27:13;4.18;;;3.13;;
34876;SDS011;21086;44.780;17.194;2023-06-26T06:29:40;8.25;;;3.33;;
34876;SDS011;21086;44.780;17.194;2023-06-26T06:32:08;6.78;;;3.25;;
34876;SDS011;21086;44.780;17.194;2023-06-26T06:34:35;4.82;;;2.97;;
34876;SDS011;21086;44.780;17.194;2023-06-26T06:37:03;4.78;;;2.80;;
34876;SDS011;21086;44.780;17.194;2023-06-26T06:39:30;5.25;;;2.90;;
34876;SDS011;21086;44.780;17.194;2023-06-26T06:41:57;3.50;;;3.20;;
34876;SDS011;21086;44.780;17.194;2023-06-26T06:44:24;3.80;;;2.90;;
34876;SDS011;21086;44.780;17.194;2023-06-26T06:46:52;3.97;;;2.70;;
34876;SDS011;21086;44.780;17.194;2023-06-26T06:49:19;3.50;;;2.80;;
34876;SDS011;21086;44.780;17.194;2023-06-26T06:51:46;9.32;;;3.38;;
34876;SDS011;21086;44.780;17.194;2023-06-26T06:54:14;5.65;;;3.10;;
34876;SDS011;21086;44.780;17.194;2023-06-26T06:56:43;3.28;;;2.50;;
34876;SDS011;21086;44.780;17.194;2023-06-26T06:59:10;5.05;;;3.10;;
34876;SDS011;21086;44.780;17.194;2023-06-26T07:01:37;5.50;;;3.35;;
34876;SDS011;21086;44.780;17.194;2023-06-26T07:04:05;4.40;;;2.65;;
34876;SDS011;21086;44.780;17.194;2023-06-26T07:06:32;4.88;;;2.67;;
34876;SDS011;21086;44.780;17.194;2023-06-26T07:08:59;3.83;;;2.92;;
34876;SDS011;21086;44.780;17.194;2023-06-26T07:11:26;4.03;;;2.88;;
34876;SDS011;21086;44.780;17.194;2023-06-26T07:13:54;4.68;;;2.88;;
34876;SDS011;21086;44.780;17.194;2023-06-26T07:16:22;4.78;;;2.85;;
34876;SDS011;21086;44.780;17.194;2023-06-26T07:18:49;3.05;;;2.70;;
34876;SDS011;21086;44.780;17.194;2023-06-26T07:21:17;3.03;;;2.70;;
34876;SDS011;21086;44.780;17.194;2023-06-26T07:23:44;5.38;;;2.50;;
34876;SDS011;21086;44.780;17.194;2023-06-26T07:26:11;2.67;;;2.47;;
34876;SDS011;21086;44.780;17.194;2023-06-26T07:28:40;3.83;;;2.53;;
34876;SDS011;21086;44.780;17.194;2023-06-26T07:31:07;4.85;;;2.33;;
34876;SDS011;21086;44.780;17.194;2023-06-26T07:33:35;3.03;;;2.35;;
34876;SDS011;21086;44.780;17.194;2023-06-26T07:36:02;5.07;;;2.60;;
34876;SDS011;21086;44.780;17.194;2023-06-26T07:38:29;2.97;;;2.50;;
34876;SDS011;21086;44.780;17.194;2023-06-26T07:40:56;8.57;;;2.63;;
34876;SDS011;21086;44.780;17.194;2023-06-26T07:43:23;3.90;;;2.47;;
34876;SDS011;21086;44.780;17.194;2023-06-26T07:45:50;3.65;;;2.60;;
34876;SDS011;21086;44.780;17.194;2023-06-26T07:48:19;3.13;;;2.50;;
34876;SDS011;21086;44.780;17.194;2023-06-26T07:50:46;4.45;;;2.72;;
34876;SDS011;21086;44.780;17.194;2023-06-26T07:53:14;2.67;;;2.30;;
34876;SDS011;21086;44.780;17.194;2023-06-26T07:55:41;2.88;;;2.50;;
34876;SDS011;21086;44.780;17.194;2023-06-26T07:58:08;2.90;;;2.38;;
34876;SDS011;21086;44.780;17.194;2023-06-26T08:00:36;2.70;;;2.50;;
34876;SDS011;21086;44.780;17.194;2023-06-26T08:03:04;3.22;;;2.47;;
34876;SDS011;21086;44.780;17.194;2023-06-26T08:05:34;4.25;;;2.80;;
34876;SDS011;21086;44.780;17.194;2023-06-26T08:08:01;2.97;;;2.67;;
34876;SDS011;21086;44.780;17.194;2023-06-26T08:10:29;3.22;;;2.67;;
34876;SDS011;21086;44.780;17.194;2023-06-26T08:12:57;3.33;;;2.58;;
34876;SDS011;21086;44.780;17.194;2023-06-26T08:15:25;3.03;;;2.40;;
34876;SDS011;21086;44.780;17.194;2023-06-26T08:17:52;2.88;;;2.50;;
34876;SDS011;21086;44.780;17.194;2023-06-26T08:20:19;2.75;;;2.55;;
34876;SDS011;21086;44.780;17.194;2023-06-26T08:22:46;2.72;;;2.20;;
34876;SDS011;21086;44.780;17.194;2023-06-26T08:25:15;2.90;;;2.45;;
34876;SDS011;21086;44.780;17.194;2023-06-26T08:27:42;3.35;;;2.95;;
34876;SDS011;21086;44.780;17.194;2023-06-26T08:30:09;2.35;;;2.15;;
34876;SDS011;21086;44.780;17.194;2023-06-26T08:32:37;2.67;;;2.42;;
34876;SDS011;21086;44.780;17.194;2023-06-26T08:35:05;6.30;;;2.75;;
34876;SDS011;21086;44.780;17.194;2023-06-26T08:37:33;4.25;;;2.40;;
34876;SDS011;21086;44.780;17.194;2023-06-26T08:40:01;3.53;;;2.72;;
34876;SDS011;21086;44.780;17.194;2023-06-26T08:42:28;3.58;;;2.47;;
34876;SDS011;21086;44.780;17.194;2023-06-26T08:44:55;5.55;;;2.90;;
34876;SDS011;21086;44.780;17.194;2023-06-26T08:47:27;4.18;;;2.97;;
34876;SDS011;21086;44.780;17.194;2023-06-26T08:50:00;2.50;;;2.30;;
34876;SDS011;21086;44.780;17.194;2023-06-26T08:52:36;4.78;;;2.63;;
34876;SDS011;21086;44.780;17.194;2023-06-26T08:55:09;6.07;;;2.72;;
34876;SDS011;21086;44.780;17.194;2023-06-26T08:57:39;3.08;;;2.30;;
34876;SDS011;21086;44.780;17.194;2023-06-26T09:00:07;3.75;;;2.42;;
34876;SDS011;21086;44.780;17.194;2023-06-26T09:02:35;2.42;;;2.15;;
34876;SDS011;21086;44.780;17.194;2023-06-26T09:05:03;3.67;;;2.80;;
34876;SDS011;21086;44.780;17.194;2023-06-26T09:07:30;2.35;;;2.15;;
34876;SDS011;21086;44.780;17.194;2023-06-26T09:09:58;4.53;;;2.40;;
34876;SDS011;21086;44.780;17.194;2023-06-26T09:12:26;5.45;;;2.67;;
34876;SDS011;21086;44.780;17.194;2023-06-26T09:14:55;2.63;;;2.30;;
34876;SDS011;21086;44.780;17.194;2023-06-26T09:17:30;3.38;;;2.05;;
34876;SDS011;21086;44.780;17.194;2023-06-26T09:19:58;3.20;;;2.38;;
34876;SDS011;21086;44.780;17.194;2023-06-26T09:22:25;3.85;;;2.95;;
34876;SDS011;21086;44.780;17.194;2023-06-26T09:24:53;2.72;;;2.30;;
34876;SDS011;21086;44.780;17.194;2023-06-26T09:27:21;3.30;;;2.38;;
34876;SDS011;21086;44.780;17.194;2023-06-26T09:29:48;5.65;;;2.42;;
34876;SDS011;21086;44.780;17.194;2023-06-26T09:32:17;2.95;;;2.50;;
34876;SDS011;21086;44.780;17.194;2023-06-26T09:34:43;4.53;;;2.80;;
34876;SDS011;21086;44.780;17.194;2023-06-26T09:37:11;3.50;;;2.78;;
34876;SDS011;21086;44.780;17.194;2023-06-26T09:39:39;2.75;;;2.35;;
34876;SDS011;21086;44.780;17.194;2023-06-26T09:42:08;2.70;;;2.22;;
34876;SDS011;21086;44.780;17.194;2023-06-26T09:44:36;4.35;;;2.50;;
34876;SDS011;21086;44.780;17.194;2023-06-26T09:47:03;3.10;;;2.60;;
34876;SDS011;21086;44.780;17.194;2023-06-26T09:49:30;2.58;;;2.38;;
34876;SDS011;21086;44.780;17.194;2023-06-26T09:51:59;2.45;;;2.17;;
34876;SDS011;21086;44.780;17.194;2023-06-26T09:54:28;5.03;;;2.60;;
34876;SDS011;21086;44.780;17.194;2023-06-26T09:57:06;2.85;;;2.33;;
34876;SDS011;21086;44.780;17.194;2023-06-26T09:59:34;4.22;;;2.40;;
34876;SDS011;21086;44.780;17.194;2023-06-26T10:02:01;3.10;;;2.10;;
34876;SDS011;21086;44.780;17.194;2023-06-26T10:04:29;4.03;;;2.50;;
34876;SDS011;21086;44.780;17.194;2023-06-26T10:06:57;3.78;;;2.10;;
34876;SDS011;21086;44.780;17.194;2023-06-26T10:09:27;2.92;;;2.40;;
34876;SDS011;21086;44.780;17.194;2023-06-26T10:11:57;2.95;;;2.40;;
34876;SDS011;21086;44.780;17.194;2023-06-26T10:14:34;3.75;;;2.38;;
34876;SDS011;21086;44.780;17.194;2023-06-26T10:17:13;2.60;;;2.30;;
34876;SDS011;21086;44.780;17.194;2023-06-26T10:19:44;3.00;;;2.40;;
34876;SDS011;21086;44.780;17.194;2023-06-26T10:22:12;3.05;;;2.58;;
34876;SDS011;21086;44.780;17.194;2023-06-26T10:24:43;3.63;;;2.35;;
34876;SDS011;21086;44.780;17.194;2023-06-26T10:29:46;5.20;;;2.50;;
34876;SDS011;21086;44.780;17.194;2023-06-26T10:32:16;2.80;;;2.47;;
34876;SDS011;21086;44.780;17.194;2023-06-26T10:34:45;3.47;;;2.33;;
34876;SDS011;21086;44.780;17.194;2023-06-26T10:37:12;2.22;;;2.00;;
34876;SDS011;21086;44.780;17.194;2023-06-26T10:42:13;3.15;;;2.50;;
34876;SDS011;21086;44.780;17.194;2023-06-26T10:44:42;4.68;;;2.55;;
34876;SDS011;21086;44.780;17.194;2023-06-26T10:47:11;5.13;;;2.20;;
34876;SDS011;21086;44.780;17.194;2023-06-26T10:53:07;5.40;;;1.92;;
34876;SDS011;21086;44.780;17.194;2023-06-26T10:55:36;9.02;;;2.78;;
34876;SDS011;21086;44.780;17.194;2023-06-26T10:58:04;3.42;;;2.60;;
34876;SDS011;21086;44.780;17.194;2023-06-26T11:03:38;2.65;;;2.30;;
34876;SDS011;21086;44.780;17.194;2023-06-26T11:06:09;2.88;;;2.40;;
34876;SDS011;21086;44.780;17.194;2023-06-26T11:08:47;2.42;;;2.22;;
34876;SDS011;21086;44.780;17.194;2023-06-26T11:14:31;2.20;;;2.00;;
34876;SDS011;21086;44.780;17.194;2023-06-26T11:16:59;3.30;;;2.03;;
34876;SDS011;21086;44.780;17.194;2023-06-26T11:19:29;2.40;;;2.20;;
34876;SDS011;21086;44.780;17.194;2023-06-26T11:21:58;2.53;;;2.10;;
34876;SDS011;21086;44.780;17.194;2023-06-26T11:24:28;5.03;;;2.60;;
34876;SDS011;21086;44.780;17.194;2023-06-26T11:26:56;3.28;;;2.33;;
34876;SDS011;21086;44.780;17.194;2023-06-26T11:29:27;3.65;;;2.50;;
34876;SDS011;21086;44.780;17.194;2023-06-26T11:32:01;4.68;;;2.60;;
34876;SDS011;21086;44.780;17.194;2023-06-26T11:34:32;3.30;;;2.45;;
34876;SDS011;21086;44.780;17.194;2023-06-26T11:37:00;2.63;;;2.38;;
34876;SDS011;21086;44.780;17.194;2023-06-26T11:39:47;3.42;;;2.65;;
34876;SDS011;21086;44.780;17.194;2023-06-26T11:42:15;3.28;;;2.10;;
34876;SDS011;21086;44.780;17.194;2023-06-26T11:44:42;6.45;;;2.80;;
34876;SDS011;21086;44.780;17.194;2023-06-26T11:47:13;3.88;;;2.83;;
34876;SDS011;21086;44.780;17.194;2023-06-26T11:49:45;2.60;;;2.40;;
34876;SDS011;21086;44.780;17.194;2023-06-26T11:52:14;2.70;;;2.30;;
34876;SDS011;21086;44.780;17.194;2023-06-26T11:54:42;3.33;;;2.38;;
34876;SDS011;21086;44.780;17.194;2023-06-26T11:57:13;2.47;;;2.28;;
34876;SDS011;21086;44.780;17.194;2023-06-26T11:59:41;4.15;;;2.30;;
34876;SDS011;21086;44.780;17.194;2023-06-26T12:02:09;2.72;;;2.20;;
34876;SDS011;21086;44.780;17.194;2023-06-26T12:04:40;3.55;;;2.50;;
34876;SDS011;21086;44.780;17.194;2023-06-26T12:07:09;3.15;;;2.65;;
34876;SDS011;21086;44.780;17.194;2023-06-26T12:09:43;5.75;;;2.40;;
34876;SDS011;21086;44.780;17.194;2023-06-26T12:12:14;2.65;;;2.33;;
34876;SDS011;21086;44.780;17.194;2023-06-26T12:14:43;3.15;;;2.60;;
34876;SDS011;21086;44.780;17.194;2023-06-26T12:17:12;3.03;;;2.47;;
34876;SDS011;21086;44.780;17.194;2023-06-26T12:19:44;2.92;;;2.55;;
34876;SDS011;21086;44.780;17.194;2023-06-26T12:22:16;3.08;;;2.50;;
34876;SDS011;21086;44.780;17.194;2023-06-26T12:24:45;3.00;;;2.60;;
34876;SDS011;21086;44.780;17.194;2023-06-26T12:27:13;3.15;;;2.50;;
34876;SDS011;21086;44.780;17.194;2023-06-26T12:29:51;5.75;;;3.15;;
34876;SDS011;21086;44.780;17.194;2023-06-26T12:32:23;4.10;;;2.55;;
34876;SDS011;21086;44.780;17.194;2023-06-26T12:34:52;3.28;;;2.35;;
34876;SDS011;21086;44.780;17.194;2023-06-26T12:37:20;4.82;;;2.60;;
34876;SDS011;21086;44.780;17.194;2023-06-26T12:39:50;2.85;;;2.20;;
34876;SDS011;21086;44.780;17.194;2023-06-26T12:42:25;2.67;;;2.25;;
34876;SDS011;21086;44.780;17.194;2023-06-26T12:44:59;3.85;;;2.60;;
34876;SDS011;21086;44.780;17.194;2023-06-26T12:48:08;5.10;;;2.60;;
34876;SDS011;21086;44.780;17.194;2023-06-26T12:50:45;3.65;;;2.53;;
34876;SDS011;21086;44.780;17.194;2023-06-26T12:53:12;2.72;;;2.45;;
34876;SDS011;21086;44.780;17.194;2023-06-26T12:55:40;4.32;;;2.45;;
34876;SDS011;21086;44.780;17.194;2023-06-26T12:58:07;2.90;;;2.30;;
34876;SDS011;21086;44.780;17.194;2023-06-26T13:00:35;6.15;;;2.17;;
34876;SDS011;21086;44.780;17.194;2023-06-26T13:03:04;3.88;;;2.30;;
34876;SDS011;21086;44.780;17.194;2023-06-26T13:05:35;2.88;;;2.47;;
34876;SDS011;21086;44.780;17.194;2023-06-26T13:08:02;2.75;;;2.20;;
34876;SDS011;21086;44.780;17.194;2023-06-26T13:10:29;5.53;;;2.70;;
34876;SDS011;21086;44.780;17.194;2023-06-26T13:12:56;2.88;;;2.58;;
34876;SDS011;21086;44.780;17.194;2023-06-26T13:15:23;2.58;;;2.28;;
34876;SDS011;21086;44.780;17.194;2023-06-26T13:17:50;2.70;;;2.30;;
34876;SDS011;21086;44.780;17.194;2023-06-26T13:20:17;4.68;;;2.50;;
34876;SDS011;21086;44.780;17.194;2023-06-26T13:22:44;2.63;;;2.30;;
34876;SDS011;21086;44.780;17.194;2023-06-26T13:25:12;3.67;;;2.30;;
34876;SDS011;21086;44.780;17.194;2023-06-26T13:27:40;3.10;;;2.28;;
34876;SDS011;21086;44.780;17.194;2023-06-26T13:30:10;5.10;;;2.60;;
34876;SDS011;21086;44.780;17.194;2023-06-26T13:32:37;3.22;;;2.38;;
34876;SDS011;21086;44.780;17.194;2023-06-26T13:35:05;6.50;;;2.20;;
34876;SDS011;21086;44.780;17.194;2023-06-26T13:37:32;3.83;;;2.30;;
34876;SDS011;21086;44.780;17.194;2023-06-26T13:40:01;3.17;;;2.47;;
34876;SDS011;21086;44.780;17.194;2023-06-26T13:42:29;2.55;;;2.10;;
34876;SDS011;21086;44.780;17.194;2023-06-26T13:44:56;2.90;;;1.90;;
34876;SDS011;21086;44.780;17.194;2023-06-26T13:47:31;2.53;;;2.13;;
34876;SDS011;21086;44.780;17.194;2023-06-26T13:50:01;2.33;;;2.00;;
34876;SDS011;21086;44.780;17.194;2023-06-26T13:52:28;2.55;;;2.00;;
34876;SDS011;21086;44.780;17.194;2023-06-26T13:54:55;2.80;;;2.35;;
34876;SDS011;21086;44.780;17.194;2023-06-26T13:57:22;2.42;;;2.20;;
34876;SDS011;21086;44.780;17.194;2023-06-26T13:59:50;2.47;;;2.00;;
34876;SDS011;21086;44.780;17.194;2023-06-26T14:02:17;1.83;;;1.70;;
34876;SDS011;21086;44.780;17.194;2023-06-26T14:04:44;2.35;;;1.88;;
34876;SDS011;21086;44.780;17.194;2023-06-26T14:07:11;3.08;;;2.00;;
34876;SDS011;21086;44.780;17.194;2023-06-26T14:09:38;3.47;;;2.03;;
34876;SDS011;21086;44.780;17.194;2023-06-26T14:12:05;2.15;;;1.80;;
34876;SDS011;21086;44.780;17.194;2023-06-26T14:14:33;2.00;;;1.70;;
34876;SDS011;21086;44.780;17.194;2023-06-26T14:17:01;1.88;;;1.73;;
34876;SDS011;21086;44.780;17.194;2023-06-26T14:19:28;1.83;;;1.63;;
34876;SDS011;21086;44.780;17.194;2023-06-26T14:21:55;2.50;;;1.80;;
34876;SDS011;21086;44.780;17.194;2023-06-26T14:24:25;1.85;;;1.73;;
34876;SDS011;21086;44.780;17.194;2023-06-26T14:27:01;1.88;;;1.65;;
34876;SDS011;21086;44.780;17.194;2023-06-26T14:29:29;1.98;;;1.52;;
34876;SDS011;21086;44.780;17.194;2023-06-26T14:31:56;1.70;;;1.60;;
34876;SDS011;21086;44.780;17.194;2023-06-26T14:34:23;1.83;;;1.50;;
34876;SDS011;21086;44.780;17.194;2023-06-26T14:36:50;2.00;;;1.60;;
34876;SDS011;21086;44.780;17.194;2023-06-26T14:39:18;2.63;;;1.67;;
34876;SDS011;21086;44.780;17.194;2023-06-26T14:41:45;2.08;;;1.80;;
34876;SDS011;21086;44.780;17.194;2023-06-26T14:44:15;2.00;;;1.58;;
34876;SDS011;21086;44.780;17.194;2023-06-26T14:46:43;2.20;;;1.60;;
34876;SDS011;21086;44.780;17.194;2023-06-26T14:49:10;3.97;;;1.63;;
34876;SDS011;21086;44.780;17.194;2023-06-26T14:51:37;1.90;;;1.70;;
34876;SDS011;21086;44.780;17.194;2023-06-26T14:54:04;1.88;;;1.67;;
34876;SDS011;21086;44.780;17.194;2023-06-26T14:56:32;3.03;;;1.50;;
34876;SDS011;21086;44.780;17.194;2023-06-26T14:58:59;1.73;;;1.50;;
34876;SDS011;21086;44.780;17.194;2023-06-26T15:01:26;2.67;;;1.55;;
34876;SDS011;21086;44.780;17.194;2023-06-26T15:03:53;2.78;;;1.60;;
34876;SDS011;21086;44.780;17.194;2023-06-26T15:06:20;2.95;;;1.83;;